Pagina principale
METAR-TAF:

METAR-TAF

Aeroporti :

Aeroporto di Amendola

Foggia, Italia

latitudine: 41-32N, longitudine: 015-43E, altezza: 57 m

Osservazione

Il bollettino è stato emesso 1 ora e 11 minuti fa, alle 22:55 UTC
Vento 5 kt da ovest/sud-ovest
Temperature 17°C
Umidità 68%
Pressione 1017 hPa
Visibilità 10 km o più
nessuna nube inferiore a 1500 m e nessun cumulonembo

METAR: LIBA 142255Z 24005KT CAVOK 17/11 Q1017 RMK SKC VIS MIN 9999 WIND THR11 22007KT WIND THR29 /////KT BLU

Ora: 02:06 (00:06 UTC)

Previsione

Il bollettino è stato emesso 1 ora e 6 minuti fa, alle 23:00 UTC
Previsione valida dal 15 alle 00 UTC al 15 alle 09 UTC
Vento 6 kt da ovest
Visibilità 10 km o più
nessuna nube inferiore a 1500 m e nessun cumulonembo

TAF: LIBA 142300Z 1500/1509 28006KT CAVOK

Osservazioni e previsioni meteorologiche di più di 4000 aeroporti (messaggi METAR e TAF).

Le stazioni disponibili sono rappresentate dai dischi gialli e rossi sulla carta.

Puntare il mouse per vedere il nome della stazione.

Clicca sopra per visualizzare le osservazioni e previsioni meteorologiche.

Per cambiare la mappa : fare clic sui pulsanti verdi con una croce nera per ingrandire, il pulsante verde con un trattino per diminuire, o sulla freccia verde per le mappe adiacenti.


METAR-TAF: